»·PEaware :: N276ND KYKM-KSEA

N276ND :: KYKM-KSEA

FLIGHT INFORMATION

Flight Status: Arrived
Operator: Privately registered:
United States
More flights under this callsign
Pilot: Giorgi S. (28323)
Aircraft: MOONEY M-20 201 202 205 220 ATS MSE
(M20P)
More flights by this aircraft type
Origin: KYKM Yakima Air Term/Mcallister
United States
Destination: KSEA Seattle-Tacoma Intl
United States
More flights between these airports :: More routes between these airports
Route: +NACHES4 YKM V4 SEA
File this flight plan on PilotEdge
Remarks:
Altitude:
(Current/Filed)
10,000ft
Speed:
(Current/Filed)
170kts
Departed: 10-May-20 01:33 PM
Arrived: 10-May-20 02:14 PM
Distance/Time
Traveled:
89nm/0:41
Distance/Time
To Go:
Arrived

Flight Plot

Page will automatically refresh every two minutes.


Map Options




Map Legend


Flown Route
Filed Route
Departure Airport
Arrival Airport
Navaid (VOR, NDB)
Fix

Horizontal Profiles

Position Reports

Time Latitude Longitude Heading Altitude Ground
Speed
10-May-20 13:17 46.572757 -120.553275 288 1084ft 0kts
10-May-20 13:18 46.572757 -120.553275 288 1084ft 0kts
10-May-20 13:20 46.572757 -120.553275 288 1084ft 0kts
10-May-20 13:21 46.572757 -120.553275 288 1084ft 0kts
10-May-20 13:22 46.572757 -120.553275 288 1084ft 0kts
10-May-20 13:23 46.572757 -120.553275 288 1084ft 0kts
10-May-20 13:24 46.572757 -120.553275 288 1084ft 0kts
10-May-20 13:25 46.572757 -120.553275 288 1084ft 0kts
10-May-20 13:26 46.572757 -120.553275 288 1084ft 0kts
10-May-20 13:27 46.572757 -120.553275 288 1084ft 0kts
10-May-20 13:28 46.572757 -120.553275 288 1084ft 0kts
10-May-20 13:29 46.572757 -120.553275 288 1084ft 0kts
10-May-20 13:30 46.571067 -120.548933 109 1076ft 32kts
10-May-20 13:31 46.567665 -120.535375 109 1052ft 32kts
10-May-20 13:32 46.566511 -120.531504 178 1045ft 1kts
10-May-20 13:33 46.570721 -120.551189 294 1447ft 100kts
10-May-20 13:34 46.586308 -120.550495 108 2785ft 114kts
10-May-20 13:34 46.582698 -120.510135 100 3826ft 122kts
10-May-20 13:36 46.588901 -120.476727 300 5120ft 133kts
10-May-20 13:37 46.607818 -120.522163 301 6231ft 132kts
10-May-20 13:37 46.626352 -120.564069 302 6569ft 157kts
10-May-20 13:39 46.655013 -120.624252 304 7383ft 150kts
10-May-20 13:40 46.678734 -120.673468 305 8177ft 147kts
10-May-20 13:40 46.698186 -120.713842 305 8841ft 145kts
10-May-20 13:42 46.724962 -120.769465 305 9772ft 145kts
10-May-20 13:42 46.745678 -120.812434 305 10005ft 170kts
10-May-20 13:43 46.774324 -120.871697 305 10000ft 182kts
10-May-20 13:44 46.803173 -120.931370 305 9999ft 179kts
10-May-20 13:45 46.831899 -120.990791 305 9999ft 179kts
10-May-20 13:46 46.860006 -121.050813 303 9999ft 179kts
10-May-20 13:47 46.887759 -121.111078 305 9999ft 179kts
10-May-20 13:48 46.915979 -121.171221 304 9999ft 179kts
10-May-20 13:49 46.944115 -121.231641 304 9999ft 179kts
10-May-20 13:50 46.972095 -121.291896 304 9999ft 179kts
10-May-20 13:51 47.000046 -121.352201 304 9999ft 179kts
10-May-20 13:52 47.028063 -121.412785 304 10000ft 179kts
10-May-20 13:53 47.056098 -121.473551 304 9999ft 180kts
10-May-20 13:54 47.084204 -121.534602 304 9999ft 180kts
10-May-20 13:55 47.112330 -121.595815 304 9999ft 180kts
10-May-20 13:56 47.140357 -121.656960 303 9999ft 181kts
10-May-20 13:57 47.168444 -121.718449 303 9999ft 181kts
10-May-20 13:58 47.196267 -121.779710 303 9999ft 180kts
10-May-20 13:59 47.224160 -121.840974 303 9999ft 180kts
10-May-20 14:00 47.249900 -121.904399 289 9861ft 178kts
10-May-20 14:01 47.262572 -121.960364 288 9390ft 143kts
10-May-20 14:02 47.275758 -122.018272 288 8818ft 146kts
10-May-20 14:03 47.288064 -122.072503 288 8183ft 136kts
10-May-20 14:04 47.299989 -122.125083 288 7483ft 135kts
10-May-20 14:05 47.311895 -122.177516 288 6783ft 135kts
10-May-20 14:06 47.323788 -122.229834 288 6083ft 134kts
10-May-20 14:07 47.334731 -122.278169 288 5106ft 113kts
10-May-20 14:08 47.344597 -122.318807 307 3988ft 101kts
10-May-20 14:09 47.367948 -122.324603 8 2631ft 95kts
10-May-20 14:10 47.393057 -122.318618 9 1244ft 85kts
10-May-20 14:11 47.420905 -122.318302 358 756ft 89kts
10-May-20 14:12 47.443814 -122.318059 360 343ft 64kts
10-May-20 14:13 47.454278 -122.316497 47 357ft 0kts
10-May-20 14:14 47.451789 -122.313529 179 400ft 37kts
10-May-20 14:15 47.440264 -122.313660 181 356ft 34kts
10-May-20 14:16 47.438402 -122.315236 358 346ft 0kts
10-May-20 14:17 47.438402 -122.315236 358 346ft 0kts
10-May-20 14:18 47.438402 -122.315236 358 346ft 0kts

Navigation Log

Ident Type
Flight plan parsing failed, navigation log unavailable